createdAt,value
2023-05-14T00:02:22.603Z,70.42
2023-05-14T00:05:08.989Z,70.32
2023-05-14T00:07:54.645Z,70.44
2023-05-14T00:10:40.288Z,70.32
2023-05-14T00:13:26.373Z,70.15
2023-05-14T00:16:12.337Z,70.23
2023-05-14T00:18:58.219Z,70.34
2023-05-14T00:21:43.540Z,70.22
2023-05-14T00:24:29.087Z,70.15
2023-05-14T00:27:14.836Z,70.28
2023-05-14T00:30:00.526Z,70.61
2023-05-14T00:32:45.967Z,70.34
2023-05-14T00:35:31.972Z,70.51
2023-05-14T00:38:19.524Z,70.59
2023-05-14T00:41:05.152Z,70.24
2023-05-14T00:43:51.346Z,70.31
2023-05-14T00:46:36.991Z,70.43
2023-05-14T00:49:22.706Z,70.18
2023-05-14T00:52:08.780Z,70.53
2023-05-14T00:54:55.011Z,70.44
2023-05-14T00:57:40.707Z,70.67
2023-05-14T01:00:26.373Z,70.42
2023-05-14T01:03:12.153Z,70.59
2023-05-14T01:06:45.921Z,70.72
2023-05-14T01:09:50.215Z,70.48
2023-05-14T01:13:00.260Z,70.68
2023-05-14T01:15:47.563Z,70.44
2023-05-14T01:18:33.172Z,70.68
2023-05-14T01:21:34.992Z,70.62
2023-05-14T01:24:20.523Z,70.70
2023-05-14T01:27:21.238Z,70.72
2023-05-14T01:30:22.024Z,70.34
2023-05-14T01:33:13.240Z,70.62
2023-05-14T01:36:00.773Z,70.55
2023-05-14T01:38:49.100Z,70.46
2023-05-14T01:41:34.657Z,70.42
2023-05-14T01:44:20.322Z,70.80
2023-05-14T01:47:06.212Z,70.37
2023-05-14T01:49:51.785Z,70.39
2023-05-14T01:52:37.326Z,70.66
2023-05-14T01:55:24.555Z,70.85
2023-05-14T01:58:10.250Z,70.33
2023-05-14T02:00:55.594Z,70.56
2023-05-14T02:03:40.906Z,70.58
2023-05-14T02:06:26.146Z,70.21
2023-05-14T02:09:14.241Z,70.72
2023-05-14T02:11:59.948Z,70.43
2023-05-14T02:14:46.032Z,70.54
2023-05-14T02:17:31.356Z,70.78
2023-05-14T02:20:16.693Z,70.77
2023-05-14T02:23:02.014Z,70.57
2023-05-14T02:25:47.565Z,70.72
2023-05-14T02:28:32.896Z,70.54
2023-05-14T02:31:19.529Z,70.65
2023-05-14T02:34:06.838Z,70.69
2023-05-14T02:36:52.464Z,70.54
2023-05-14T02:39:38.235Z,70.64
2023-05-14T02:42:25.206Z,70.55
2023-05-14T02:45:10.843Z,70.83
2023-05-14T02:47:56.405Z,70.97
2023-05-14T02:50:41.841Z,71.06
2023-05-14T02:53:27.294Z,70.63
2023-05-14T02:56:12.716Z,70.84
2023-05-14T02:58:58.125Z,70.88
2023-05-14T03:01:44.167Z,71.06
2023-05-14T03:04:30.053Z,71.27
2023-05-14T03:07:15.623Z,71.25
2023-05-14T03:10:01.112Z,70.84
2023-05-14T03:12:47.359Z,70.88
2023-05-14T03:15:33.151Z,70.95
2023-05-14T03:18:18.423Z,71.14
2023-05-14T03:21:05.090Z,71.27
2023-05-14T03:23:52.195Z,71.34
2023-05-14T03:26:38.106Z,71.51
2023-05-14T03:29:23.438Z,70.92
2023-05-14T03:32:08.789Z,71.07
2023-05-14T03:34:54.081Z,71.34
2023-05-14T03:37:41.018Z,71.54
2023-05-14T03:40:26.534Z,71.46
2023-05-14T03:43:12.292Z,71.33
2023-05-14T03:45:58.524Z,71.10
2023-05-14T03:48:44.079Z,71.76
2023-05-14T03:51:32.677Z,71.55
2023-05-14T03:54:18.516Z,71.31
2023-05-14T03:57:04.307Z,71.38
2023-05-14T03:59:50.178Z,71.74
2023-05-14T04:02:35.645Z,71.77
2023-05-14T04:05:21.548Z,71.81
2023-05-14T04:08:07.427Z,71.71
2023-05-14T04:10:52.773Z,71.74
2023-05-14T04:13:38.029Z,71.54
2023-05-14T04:16:23.756Z,71.75
2023-05-14T04:19:09.279Z,71.47
2023-05-14T04:21:54.670Z,71.92
2023-05-14T04:24:40.185Z,71.93
2023-05-14T04:27:26.032Z,71.59
2023-05-14T04:30:11.823Z,72.01
2023-05-14T04:32:57.490Z,71.69
2023-05-14T04:35:45.394Z,72.03
2023-05-14T04:38:32.045Z,71.84
2023-05-14T04:41:17.425Z,71.99
2023-05-14T04:44:03.198Z,72.17
2023-05-14T04:46:49.117Z,72.29
2023-05-14T04:49:34.659Z,72.22
2023-05-14T04:52:20.094Z,71.76
2023-05-14T04:55:06.440Z,72.24
2023-05-14T04:57:52.066Z,71.85
2023-05-14T05:00:37.678Z,72.32
2023-05-14T05:03:23.091Z,72.17
2023-05-14T05:06:08.868Z,72.19
2023-05-14T05:08:56.027Z,72.50
2023-05-14T05:11:41.781Z,71.92
2023-05-14T05:14:27.453Z,72.37
2023-05-14T05:17:13.136Z,72.26
2023-05-14T05:19:58.337Z,72.46
2023-05-14T05:22:43.703Z,72.16
2023-05-14T05:25:29.478Z,72.27
2023-05-14T05:28:15.023Z,72.20
2023-05-14T05:31:00.417Z,72.23
2023-05-14T05:33:46.039Z,72.75
2023-05-14T05:36:32.083Z,72.57
2023-05-14T05:39:17.606Z,72.66
2023-05-14T05:42:02.977Z,72.13
2023-05-14T05:44:48.410Z,72.73
2023-05-14T05:47:34.147Z,72.28
2023-05-14T05:50:20.091Z,72.32
2023-05-14T05:53:05.640Z,72.34
2023-05-14T05:55:53.951Z,72.80
2023-05-14T05:58:40.545Z,72.32
2023-05-14T06:01:26.746Z,72.48
2023-05-14T06:04:11.838Z,72.67
2023-05-14T06:06:57.363Z,72.44
2023-05-14T06:09:42.778Z,72.31
2023-05-14T06:12:30.183Z,72.38
2023-05-14T06:15:15.871Z,73.12
2023-05-14T06:18:01.391Z,72.74
2023-05-14T06:20:46.792Z,72.57
2023-05-14T06:23:32.410Z,72.15
2023-05-14T06:26:18.556Z,72.24
2023-05-14T06:29:04.593Z,72.66
2023-05-14T06:31:50.473Z,72.08
2023-05-14T06:34:36.220Z,72.32
2023-05-14T06:37:21.637Z,72.38
2023-05-14T06:40:07.679Z,71.74
2023-05-14T06:42:52.958Z,72.31
2023-05-14T06:45:38.525Z,71.68
2023-05-14T06:48:24.177Z,72.03
2023-05-14T06:51:11.171Z,71.60
2023-05-14T06:53:56.495Z,72.04
2023-05-14T06:56:42.029Z,72.09
2023-05-14T06:59:27.821Z,71.81
2023-05-14T07:02:13.197Z,71.90
2023-05-14T07:04:58.815Z,71.99
2023-05-14T07:07:44.126Z,72.17
2023-05-14T07:10:31.026Z,71.65
2023-05-14T07:13:16.571Z,72.02
2023-05-14T07:16:01.797Z,72.11
2023-05-14T07:18:47.265Z,71.59
2023-05-14T07:21:32.824Z,72.17
2023-05-14T07:24:18.525Z,72.22
2023-05-14T07:27:04.347Z,72.20
2023-05-14T07:29:50.981Z,71.77
2023-05-14T07:32:36.810Z,72.36
2023-05-14T07:35:23.212Z,71.78
2023-05-14T07:38:08.526Z,71.46
2023-05-14T07:40:54.569Z,71.66
2023-05-14T07:43:40.631Z,71.34
2023-05-14T07:46:26.592Z,71.15
2023-05-14T07:49:12.481Z,71.57
2023-05-14T07:51:57.927Z,71.60
2023-05-14T07:54:43.500Z,71.12
2023-05-14T07:57:28.811Z,71.26
2023-05-14T08:00:15.991Z,71.40
2023-05-14T08:03:01.847Z,71.46
2023-05-14T08:05:47.446Z,71.22
2023-05-14T08:08:33.044Z,70.89
2023-05-14T08:11:18.513Z,71.32
2023-05-14T08:14:04.189Z,71.38
2023-05-14T08:16:50.100Z,70.91
2023-05-14T08:19:35.779Z,71.20
2023-05-14T08:22:21.898Z,70.36
2023-05-14T08:25:07.972Z,70.59
2023-05-14T08:27:54.312Z,70.49
2023-05-14T08:30:39.803Z,70.46
2023-05-14T08:33:25.087Z,70.24
2023-05-14T08:36:10.610Z,70.51
2023-05-14T08:38:56.276Z,70.35
2023-05-14T08:41:42.033Z,70.77
2023-05-14T08:44:43.825Z,70.15
2023-05-14T08:47:30.761Z,70.47
2023-05-14T08:50:17.506Z,70.04
2023-05-14T08:53:03.029Z,69.73
2023-05-14T08:55:50.909Z,70.26
2023-05-14T08:58:36.187Z,70.18
2023-05-14T09:01:22.130Z,69.63
2023-05-14T09:04:08.603Z,70.20
2023-05-14T09:06:55.020Z,69.64
2023-05-14T09:09:41.586Z,69.79
2023-05-14T09:12:27.274Z,69.09
2023-05-14T09:15:13.058Z,68.76
2023-05-14T09:17:58.556Z,68.85
2023-05-14T09:20:43.837Z,68.62
2023-05-14T09:23:34.511Z,68.74
2023-05-14T09:26:25.177Z,68.27
2023-05-14T09:29:11.213Z,67.62
2023-05-14T09:31:58.042Z,67.91
2023-05-14T09:34:43.584Z,67.08
2023-05-14T09:37:29.973Z,66.89
2023-05-14T09:40:16.318Z,66.61
2023-05-14T09:43:02.117Z,65.72
2023-05-14T09:45:47.563Z,65.85
2023-05-14T09:48:33.190Z,65.90
2023-05-14T09:51:18.908Z,65.66
2023-05-14T09:54:05.001Z,65.54
2023-05-14T09:56:51.038Z,65.71
2023-05-14T09:59:36.496Z,65.58
2023-05-14T10:02:27.478Z,65.16
2023-05-14T10:05:13.395Z,64.76
2023-05-14T10:08:01.040Z,64.65
2023-05-14T10:10:46.569Z,64.51
2023-05-14T10:13:39.452Z,64.71
2023-05-14T10:16:38.006Z,64.12
2023-05-14T10:19:24.758Z,64.44
2023-05-14T10:22:12.740Z,64.37
2023-05-14T10:24:58.659Z,64.12
2023-05-14T10:27:44.706Z,64.05
2023-05-14T10:30:31.897Z,63.96
2023-05-14T10:33:18.716Z,63.67
2023-05-14T10:36:06.276Z,63.39
2023-05-14T10:38:57.090Z,63.71
2023-05-14T10:41:43.003Z,63.81
2023-05-14T10:44:29.086Z,63.98
2023-05-14T10:47:17.417Z,63.61
2023-05-14T10:50:05.748Z,62.96
2023-05-14T10:52:52.163Z,63.72
2023-05-14T10:55:38.702Z,63.27
2023-05-14T10:58:24.187Z,63.63
2023-05-14T11:01:11.713Z,63.86
2023-05-14T11:03:58.573Z,63.53
2023-05-14T11:06:46.893Z,63.46
2023-05-14T11:09:32.785Z,63.04
2023-05-14T11:12:18.910Z,63.61
2023-05-14T11:15:07.289Z,63.85
2023-05-14T11:17:54.177Z,63.55
2023-05-14T11:20:39.539Z,63.55
2023-05-14T11:23:27.854Z,63.44
2023-05-14T11:26:13.866Z,63.62
2023-05-14T11:28:59.348Z,63.62
2023-05-14T11:31:44.930Z,63.48
2023-05-14T11:34:30.503Z,63.56
2023-05-14T11:37:16.997Z,63.69
2023-05-14T11:40:02.702Z,63.20
2023-05-14T11:42:51.785Z,63.50
2023-05-14T11:45:37.868Z,63.25
2023-05-14T11:48:24.198Z,63.23
2023-05-14T11:51:09.978Z,63.00
2023-05-14T11:53:55.428Z,63.25
2023-05-14T11:56:40.781Z,63.40
2023-05-14T11:59:28.153Z,62.95
2023-05-14T12:02:17.472Z,62.58
2023-05-14T12:05:03.141Z,62.57
2023-05-14T12:07:48.890Z,62.78
2023-05-14T12:10:42.545Z,62.50
2023-05-14T12:13:30.117Z,62.90
2023-05-14T12:16:17.651Z,62.63
2023-05-14T12:19:03.580Z,61.34
2023-05-14T12:21:51.048Z,62.38
2023-05-14T12:24:36.922Z,62.02
2023-05-14T12:27:27.743Z,61.75
2023-05-14T12:33:03.346Z,61.33
2023-05-14T12:35:48.833Z,61.23
2023-05-14T12:38:34.264Z,61.50
2023-05-14T12:41:19.777Z,61.38
2023-05-14T12:44:05.456Z,61.26
2023-05-14T12:46:51.308Z,61.41
2023-05-14T12:49:37.263Z,61.71
2023-05-14T12:52:36.636Z,61.71
2023-05-14T12:55:24.515Z,61.25
2023-05-14T12:58:10.072Z,61.68
2023-05-14T13:00:55.430Z,61.36
2023-05-14T13:03:40.688Z,61.37
2023-05-14T13:06:26.232Z,61.47
2023-05-14T13:09:11.701Z,61.04
2023-05-14T13:11:57.081Z,61.40
2023-05-14T13:14:42.620Z,61.54
2023-05-14T13:17:27.982Z,61.41
2023-05-14T13:20:13.471Z,60.46
2023-05-14T13:22:58.900Z,61.11
2023-05-14T13:25:44.496Z,59.75
2023-05-14T13:28:30.106Z,60.84
2023-05-14T13:31:15.728Z,60.98
2023-05-14T13:34:02.551Z,60.87
2023-05-14T13:36:49.921Z,61.13
2023-05-14T13:39:34.961Z,60.55
2023-05-14T13:42:20.524Z,60.78
2023-05-14T13:45:06.583Z,61.12
2023-05-14T13:47:52.708Z,60.91
2023-05-14T13:50:38.180Z,60.35
2023-05-14T13:53:24.802Z,60.02
2023-05-14T13:56:10.207Z,60.01
2023-05-14T13:58:55.851Z,60.58
2023-05-14T14:01:43.258Z,60.92
2023-05-14T14:04:29.264Z,60.44
2023-05-14T14:07:14.558Z,60.79
2023-05-14T14:10:01.666Z,61.01
2023-05-14T14:12:47.748Z,60.86
2023-05-14T14:15:33.168Z,61.07
2023-05-14T14:18:18.545Z,60.78
2023-05-14T14:21:04.634Z,60.53
2023-05-14T14:23:49.958Z,60.10
2023-05-14T14:26:35.640Z,60.17
2023-05-14T14:29:23.795Z,60.52
2023-05-14T14:32:09.460Z,60.52
2023-05-14T14:34:54.832Z,60.81
2023-05-14T14:37:41.343Z,60.52
2023-05-14T14:40:27.178Z,60.45
2023-05-14T14:43:12.732Z,60.47
2023-05-14T14:45:58.251Z,61.14
2023-05-14T14:48:44.074Z,60.63
2023-05-14T14:51:30.372Z,60.03
2023-05-14T14:54:15.862Z,60.76
2023-05-14T14:57:01.237Z,60.57
2023-05-14T14:59:47.151Z,59.75
2023-05-14T15:02:32.653Z,58.99
2023-05-14T15:05:17.861Z,59.44
2023-05-14T15:08:04.149Z,59.34
2023-05-14T15:10:49.856Z,58.97
2023-05-14T15:13:35.282Z,58.66
2023-05-14T15:16:20.798Z,58.52
2023-05-14T15:19:06.037Z,58.21
2023-05-14T15:21:52.007Z,58.25
2023-05-14T15:24:37.514Z,58.16
2023-05-14T15:27:23.209Z,58.60
2023-05-14T15:30:09.155Z,58.13
2023-05-14T15:32:55.768Z,57.96
2023-05-14T15:35:41.153Z,57.91
2023-05-14T15:38:26.913Z,56.92
2023-05-14T15:41:12.163Z,57.73
2023-05-14T15:43:58.850Z,57.54
2023-05-14T15:46:44.646Z,57.96
2023-05-14T15:49:30.350Z,57.48
2023-05-14T15:52:15.893Z,58.36
2023-05-14T15:55:01.553Z,58.56
2023-05-14T15:57:47.831Z,58.85
2023-05-14T16:00:33.201Z,58.78
2023-05-14T16:03:18.521Z,58.22
2023-05-14T16:06:04.221Z,58.74
2023-05-14T16:08:49.983Z,58.73
2023-05-14T16:11:35.774Z,57.99
2023-05-14T16:14:22.696Z,58.20
2023-05-14T16:17:08.623Z,58.49
2023-05-14T16:19:56.247Z,58.65
2023-05-14T16:22:42.548Z,58.43
2023-05-14T16:25:30.151Z,58.89
2023-05-14T16:28:15.795Z,58.34
2023-05-14T16:31:03.583Z,58.54
2023-05-14T16:33:49.195Z,59.06
2023-05-14T16:36:34.929Z,59.00
2023-05-14T16:39:20.750Z,59.50
2023-05-14T16:42:06.500Z,60.04
2023-05-14T16:44:52.156Z,60.34
2023-05-14T16:47:37.767Z,60.17
2023-05-14T16:50:23.610Z,60.10
2023-05-14T16:53:09.718Z,60.80
2023-05-14T16:55:55.127Z,60.58
2023-05-14T16:58:40.859Z,61.14
2023-05-14T17:01:26.854Z,60.80
2023-05-14T17:04:12.253Z,60.96
2023-05-14T17:06:57.602Z,62.13
2023-05-14T17:09:42.770Z,62.12
2023-05-14T17:12:28.386Z,61.10
2023-05-14T17:15:13.789Z,61.33
2023-05-14T17:17:59.399Z,62.01
2023-05-14T17:20:44.736Z,61.79
2023-05-14T17:23:30.418Z,62.00
2023-05-14T17:26:16.460Z,62.75
2023-05-14T17:29:02.396Z,62.20
2023-05-14T17:31:48.719Z,62.80
2023-05-14T17:34:34.301Z,62.15
2023-05-14T17:37:21.128Z,62.88
2023-05-14T17:40:07.595Z,63.60
2023-05-14T17:42:53.522Z,63.65
2023-05-14T17:45:52.434Z,63.78
2023-05-14T17:48:38.597Z,63.29
2023-05-14T17:51:24.009Z,63.39
2023-05-14T17:54:09.151Z,63.88
2023-05-14T17:56:54.695Z,63.90
2023-05-14T17:59:40.521Z,64.53
2023-05-14T18:02:26.152Z,63.85
2023-05-14T18:05:11.621Z,64.33
2023-05-14T18:07:58.564Z,64.56
2023-05-14T18:10:44.200Z,64.10
2023-05-14T18:13:29.892Z,63.75
2023-05-14T18:16:15.713Z,64.31
2023-05-14T18:29:30.523Z,64.60
2023-05-14T18:32:16.557Z,64.76
2023-05-14T18:35:02.692Z,64.80
2023-05-14T18:37:48.096Z,65.03
2023-05-14T18:40:33.791Z,65.41
2023-05-14T18:43:19.792Z,65.66
2023-05-14T18:46:05.572Z,65.58
2023-05-14T18:48:51.326Z,65.40
2023-05-14T18:51:36.943Z,65.60
2023-05-14T18:54:22.189Z,65.84
2023-05-14T18:57:08.176Z,65.66
2023-05-14T18:59:53.499Z,65.49
2023-05-14T19:02:39.034Z,65.66
2023-05-14T19:05:24.960Z,65.84
2023-05-14T19:08:10.662Z,65.88
2023-05-14T19:10:56.180Z,66.12
2023-05-14T19:13:41.745Z,65.77
2023-05-14T19:16:27.274Z,66.24
2023-05-14T19:19:13.461Z,66.21
2023-05-14T19:21:58.878Z,66.12
2023-05-14T19:24:44.354Z,66.37
2023-05-14T19:27:29.841Z,66.54
2023-05-14T19:30:15.356Z,66.41
2023-05-14T19:33:00.706Z,66.37
2023-05-14T19:35:46.627Z,66.59
2023-05-14T19:38:32.456Z,66.59
2023-05-14T19:41:18.155Z,66.75
2023-05-14T19:44:03.813Z,66.99
2023-05-14T19:46:49.341Z,67.38
2023-05-14T19:49:35.092Z,67.09
2023-05-14T19:52:20.671Z,67.50
2023-05-14T19:55:06.347Z,67.06
2023-05-14T19:57:51.983Z,67.38
2023-05-14T20:00:37.666Z,67.39
2023-05-14T20:03:27.350Z,67.60
2023-05-14T20:06:12.993Z,67.62
2023-05-14T20:08:59.148Z,67.78
2023-05-14T20:11:44.466Z,67.69
2023-05-14T20:14:29.967Z,68.00
2023-05-14T20:17:15.464Z,67.87
2023-05-14T20:20:01.673Z,67.97
2023-05-14T20:22:47.263Z,68.32
2023-05-14T20:25:33.461Z,68.28
2023-05-14T20:28:18.970Z,68.44
2023-05-14T20:31:04.553Z,68.52
2023-05-14T20:33:50.729Z,68.49
2023-05-14T20:36:37.584Z,68.64
2023-05-14T20:39:23.521Z,68.61
2023-05-14T20:42:09.445Z,68.94
2023-05-14T20:44:55.503Z,68.87
2023-05-14T20:47:41.127Z,69.14
2023-05-14T20:50:27.870Z,69.02
2023-05-14T20:53:13.400Z,68.97
2023-05-14T20:55:59.643Z,69.19
2023-05-14T20:58:45.931Z,68.81
2023-05-14T21:01:31.105Z,69.14
2023-05-14T21:04:16.780Z,69.58
2023-05-14T21:07:02.885Z,69.28
2023-05-14T21:09:52.600Z,69.47
2023-05-14T21:12:38.301Z,69.88
2023-05-14T21:15:24.034Z,69.64
2023-05-14T21:18:09.894Z,70.40
2023-05-14T21:20:55.384Z,69.99
2023-05-14T21:23:40.648Z,70.49
2023-05-14T21:26:26.513Z,70.59
2023-05-14T21:29:11.913Z,70.59
2023-05-14T21:31:57.412Z,70.64
2023-05-14T21:34:43.280Z,70.28
2023-05-14T21:37:28.772Z,70.88
2023-05-14T21:40:14.251Z,70.94
2023-05-14T21:42:59.787Z,71.02
2023-05-14T21:45:47.088Z,70.98
2023-05-14T21:48:32.537Z,71.00
2023-05-14T21:51:18.370Z,71.36
2023-05-14T21:54:03.889Z,71.40
2023-05-14T21:56:49.436Z,70.92
2023-05-14T21:59:35.568Z,71.09
2023-05-14T22:02:21.349Z,71.41
2023-05-14T22:05:07.451Z,71.56
2023-05-14T22:07:53.303Z,71.79
2023-05-14T22:10:38.784Z,71.34
2023-05-14T22:13:24.081Z,71.89
2023-05-14T22:16:13.662Z,71.39
2023-05-14T22:18:59.880Z,71.90
2023-05-14T22:21:45.437Z,72.06
2023-05-14T22:24:31.201Z,72.28
2023-05-14T22:27:17.675Z,71.97
2023-05-14T22:30:02.971Z,72.00
2023-05-14T22:32:48.354Z,72.63
2023-05-14T22:35:33.539Z,72.17
2023-05-14T22:38:20.172Z,72.87
2023-05-14T22:41:05.540Z,72.94
2023-05-14T22:43:51.081Z,72.20
2023-05-14T22:46:36.386Z,73.20
2023-05-14T22:49:21.804Z,72.88
2023-05-14T22:52:07.282Z,72.99
2023-05-14T22:54:53.281Z,72.57
2023-05-14T22:57:38.803Z,72.99
2023-05-14T23:00:25.214Z,72.89
2023-05-14T23:03:11.004Z,73.18
2023-05-14T23:05:56.590Z,73.43
2023-05-14T23:08:42.133Z,73.43
2023-05-14T23:11:27.849Z,73.07
2023-05-14T23:14:13.393Z,73.60
2023-05-14T23:16:59.151Z,73.03
2023-05-14T23:19:44.823Z,73.37
2023-05-14T23:22:30.324Z,73.23
2023-05-14T23:25:15.756Z,73.73
2023-05-14T23:28:01.257Z,73.71
2023-05-14T23:30:46.546Z,73.29
2023-05-14T23:33:32.091Z,73.30
2023-05-14T23:36:17.643Z,73.77
2023-05-14T23:39:03.232Z,73.71
2023-05-14T23:41:48.623Z,73.86
2023-05-14T23:44:34.194Z,74.12
2023-05-14T23:47:19.489Z,74.51
2023-05-14T23:50:06.773Z,74.39
2023-05-14T23:52:53.680Z,74.34
2023-05-14T23:55:39.783Z,74.50
2023-05-14T23:58:25.432Z,74.31
